Time;durP1;ratioP1;P1;durP2;ratioP2;P2;SDS_P1;SDS_P2;PMS_P1;PMS_P2;Temp;Humidity;BMP_temperature;BMP_pressure;BME280_temperature;BME280_humidity;BME280_pressure;Samples;Min_cycle;Max_cycle;Signal;HPM_P1;HPM_P2
2022/11/16 00:02:02;;;;;;;90.47;42.25;;;;;;;11.31;86.23;100634.16;4883373;29;20170;-79
2022/11/16 00:04:32;;;;;;;85.93;42.88;;;;;;;11.25;86.45;100635.56;4838037;29;20151;-77
2022/11/16 00:07:03;;;;;;;85.32;42.85;;;;;;;10.94;86.03;100565.78;4847973;29;20056;-78
2022/11/16 00:09:31;;;;;;;76.32;37.65;;;;;;;11.01;85.56;100571.38;4860277;29;20064;-79
2022/11/16 00:12:11;;;;;;;85.32;40.53;;;;;;;10.96;86.57;100574.44;4845479;29;20416;-78
2022/11/16 00:14:52;;;;;;;80.53;40.17;;;;;;;11.31;87.45;100623.50;4852347;29;20056;-78
2022/11/16 00:17:36;;;;;;;78.20;39.80;;;;;;;10.91;87.04;100553.59;4837608;29;20500;-80
2022/11/16 00:20:26;;;;;;;81.05;38.75;;;;;;;11.28;86.77;100608.69;4845926;29;20052;-79
2022/11/16 00:22:55;;;;;;;76.60;38.65;;;;;;;11.20;87.00;100595.28;4854255;29;20499;-78
2022/11/16 00:25:35;;;;;;;78.10;38.88;;;;;;;11.28;86.88;100603.38;4844185;29;20056;-80
2022/11/16 00:28:27;;;;;;;75.10;37.70;;;;;;;11.24;86.37;100599.34;4849191;29;20776;-80
2022/11/16 00:31:08;;;;;;;78.20;40.10;;;;;;;11.17;86.46;100595.56;4822884;29;20056;-80
2022/11/16 00:33:41;;;;;;;71.63;37.90;;;;;;;11.30;86.13;100612.06;4845091;29;20056;-79
2022/11/16 00:36:34;;;;;;;71.70;37.72;;;;;;;11.12;86.65;100589.84;4831083;29;20052;-81
2022/11/16 00:39:20;;;;;;;78.30;39.10;;;;;;;11.18;86.68;100588.44;4844912;29;20068;-82
2022/11/16 00:42:00;;;;;;;78.45;38.83;;;;;;;11.08;87.26;100567.19;4829394;29;20159;-81
2022/11/16 00:44:31;;;;;;;75.30;37.65;;;;;;;11.18;87.34;100586.59;4841085;29;20086;-80
2022/11/16 00:47:15;;;;;;;76.13;38.65;;;;;;;11.19;86.62;100572.34;4864181;29;20055;-79
2022/11/16 00:49:41;;;;;;;82.35;41.90;;;;;;;11.27;86.17;100585.75;4852137;29;20071;-79
2022/11/16 00:52:08;;;;;;;81.15;42.40;;;;;;;11.07;86.00;100541.59;4855318;29;20056;-81
2022/11/16 00:54:37;;;;;;;74.03;39.00;;;;;;;11.19;85.98;100561.72;4857169;29;20084;-78
2022/11/16 00:57:04;;;;;;;73.72;38.35;;;;;;;10.71;86.80;100495.34;4860825;29;20297;-79
2022/11/16 00:59:34;;;;;;;78.35;39.83;;;;;;;11.05;87.35;100543.56;4864091;29;20064;-80
2022/11/16 01:02:01;;;;;;;71.55;36.28;;;;;;;11.18;87.47;100565.34;4861683;29;20092;-78
2022/11/16 01:04:29;;;;;;;68.22;35.47;;;;;;;11.22;87.03;100563.25;4899154;29;20056;-80
2022/11/16 01:06:56;;;;;;;64.60;35.63;;;;;;;11.16;86.98;100556.69;4896185;29;20054;-81
2022/11/16 01:09:23;;;;;;;67.32;36.80;;;;;;;11.16;86.60;100538.06;4900217;29;20493;-80
2022/11/16 01:12:11;;;;;;;74.38;39.30;;;;;;;11.10;86.73;100525.38;4898117;29;20082;-80
2022/11/16 01:14:42;;;;;;;69.30;35.50;;;;;;;11.08;87.40;100525.50;4899898;29;20525;-79
2022/11/16 01:17:10;;;;;;;72.82;38.50;;;;;;;11.16;86.81;100522.13;4897962;29;20440;-81
2022/11/16 01:19:38;;;;;;;69.72;37.22;;;;;;;11.22;86.75;100534.88;4896871;29;20285;-80
2022/11/16 01:22:05;;;;;;;70.28;39.35;;;;;;;11.28;87.35;100544.91;4900915;29;20142;-77
2022/11/16 01:24:38;;;;;;;67.35;36.95;;;;;;;11.37;86.82;100542.41;4917503;29;20051;-78
2022/11/16 01:27:07;;;;;;;73.22;37.53;;;;;;;11.26;87.19;100524.78;4913840;29;20138;-80
2022/11/16 01:29:34;;;;;;;65.60;33.35;;;;;;;11.30;87.11;100516.38;4897327;29;20115;-81
2022/11/16 01:32:01;;;;;;;64.20;31.92;;;;;;;11.38;86.41;100533.44;4896590;29;20062;-78
2022/11/16 01:34:27;;;;;;;56.67;34.03;;;;;;;10.73;86.72;100425.19;4900051;29;20074;-78
2022/11/16 01:36:54;;;;;;;65.85;33.63;;;;;;;11.37;86.68;100514.00;4903034;29;20281;-81
2022/11/16 01:39:20;;;;;;;62.78;32.85;;;;;;;11.27;86.51;100487.44;4902646;29;20055;-81
2022/11/16 01:41:47;;;;;;;65.05;36.10;;;;;;;11.46;86.59;100514.97;4898707;29;20054;-81
2022/11/16 01:44:13;;;;;;;74.95;37.90;;;;;;;11.42;86.08;100510.91;4899929;29;20249;-79
2022/11/16 01:46:44;;;;;;;73.95;38.47;;;;;;;11.30;86.74;100491.63;4905397;29;20060;-80
2022/11/16 01:49:18;;;;;;;67.25;37.47;;;;;;;11.36;86.35;100492.84;4901047;29;20138;-82
2022/11/16 01:51:51;;;;;;;70.18;36.40;;;;;;;11.31;86.37;100491.50;4905050;29;20062;-82
2022/11/16 01:54:18;;;;;;;70.72;37.40;;;;;;;10.69;86.10;100373.34;4920104;29;20083;-81
2022/11/16 01:56:52;;;;;;;68.88;36.75;;;;;;;11.16;86.48;100450.41;4903458;29;20054;-79
2022/11/16 01:59:24;;;;;;;68.70;36.55;;;;;;;11.38;86.37;100474.94;4898810;29;20060;-81
2022/11/16 02:01:51;;;;;;;69.07;37.70;;;;;;;11.38;86.79;100480.28;4895140;29;20544;-81
2022/11/16 02:04:18;;;;;;;72.22;37.00;;;;;;;11.24;86.90;100453.19;4897479;29;20529;-81
2022/11/16 02:07:16;;;;;;;66.50;36.55;;;;;;;11.41;86.09;100472.00;4893912;29;20490;-81
2022/11/16 02:09:57;;;;;;;65.93;36.28;;;;;;;11.41;86.70;100469.34;4879364;29;20496;-81
2022/11/16 02:12:39;;;;;;;69.57;35.60;;;;;;;11.39;86.34;100450.91;4907441;29;20492;-80
2022/11/16 02:15:33;;;;;;;65.47;37.38;;;;;;;11.32;86.30;100442.66;4919198;28;20443;-81
2022/11/16 02:18:03;;;;;;;68.35;36.47;;;;;;;11.37;85.58;100458.19;4916632;29;20086;-80
2022/11/16 02:20:50;;;;;;;66.90;35.65;;;;;;;11.22;85.94;100449.00;4902532;29;20083;-79
2022/11/16 02:23:32;;;;;;;62.90;35.25;;;;;;;11.41;85.68;100464.03;4898867;29;20187;-80
2022/11/16 02:26:08;;;;;;;69.90;34.80;;;;;;;11.22;85.84;100449.84;4897031;29;20052;-81
2022/11/16 02:29:02;;;;;;;58.75;32.28;;;;;;;11.36;86.14;100442.34;4892940;29;20095;-79
2022/11/16 02:31:40;;;;;;;69.78;35.90;;;;;;;11.23;86.34;100429.41;4890518;29;20056;-79
2022/11/16 02:34:10;;;;;;;68.85;35.63;;;;;;;11.31;85.66;100437.47;4900766;29;20062;-80
2022/11/16 02:36:40;;;;;;;56.83;31.13;;;;;;;10.98;86.12;100391.03;4896789;29;20416;-79
2022/11/16 02:39:13;;;;;;;60.00;33.47;;;;;;;11.34;86.45;100429.25;4895991;29;20079;-82
2022/11/16 02:41:43;;;;;;;64.25;33.40;;;;;;;10.88;86.83;100357.38;4897657;29;20672;-82
2022/11/16 02:44:39;;;;;;;62.35;33.50;;;;;;;11.33;86.67;100433.72;4898630;29;20939;-80
2022/11/16 02:47:10;;;;;;;55.92;31.00;;;;;;;11.28;86.63;100412.03;4891711;29;20709;-82
2022/11/16 02:49:44;;;;;;;53.17;29.88;;;;;;;11.43;86.03;100408.91;4897426;29;20369;-81
2022/11/16 02:52:21;;;;;;;52.33;29.70;;;;;;;11.38;85.36;100396.06;4896756;29;20305;-80
2022/11/16 02:54:48;;;;;;;56.30;31.27;;;;;;;11.53;86.01;100409.72;4898396;29;20410;-81
2022/11/16 02:57:23;;;;;;;57.80;31.00;;;;;;;11.13;85.63;100339.09;4895454;29;20681;-80
2022/11/16 02:59:55;;;;;;;52.30;29.40;;;;;;;11.55;84.76;100407.72;4898540;29;20504;-78
2022/11/16 03:02:41;;;;;;;57.92;30.98;;;;;;;11.54;85.04;100400.75;4900276;29;20070;-80
2022/11/16 03:05:17;;;;;;;54.40;30.70;;;;;;;11.47;85.40;100397.00;4891735;29;20512;-78
2022/11/16 03:07:49;;;;;;;60.78;33.17;;;;;;;11.39;84.19;100375.66;4893756;29;20056;-80
2022/11/16 03:13:20;;;;;;;54.92;30.90;;;;;;;11.26;85.69;100371.50;4844603;29;20655;-80
2022/11/16 03:15:49;;;;;;;53.10;29.27;;;;;;;11.36;85.96;100341.38;4894240;29;20122;-80
2022/11/16 03:18:21;;;;;;;61.67;34.38;;;;;;;11.18;85.54;100304.97;4898981;29;20055;-80
2022/11/16 03:20:51;;;;;;;65.10;34.13;;;;;;;11.51;85.53;100364.66;4897417;29;20052;-78
2022/11/16 03:23:19;;;;;;;59.33;32.65;;;;;;;11.40;85.63;100350.72;4899508;29;20391;-80
2022/11/16 03:25:50;;;;;;;63.30;34.10;;;;;;;11.02;85.04;100284.34;4903048;29;20353;-80
2022/11/16 03:28:42;;;;;;;54.72;31.35;;;;;;;11.44;85.77;100362.75;4910015;29;20774;-80
2022/11/16 03:31:20;;;;;;;;;;;;;;;11.38;86.68;100358.84;4907260;29;20146;-80
2022/11/16 03:33:52;;;;;;;58.80;33.50;;;;;;;11.36;86.15;100365.28;4920332;29;19958;-79
2022/11/16 03:36:30;;;;;;;62.58;32.40;;;;;;;11.39;86.06;100360.53;4905532;29;20051;-80
2022/11/16 03:39:03;;;;;;;54.08;31.00;;;;;;;11.46;86.10;100339.53;4899451;29;20681;-78
2022/11/16 03:41:31;;;;;;;53.78;31.33;;;;;;;11.47;85.29;100338.53;4898289;29;20270;-79
2022/11/16 03:43:59;;;;;;;55.47;30.27;;;;;;;11.47;85.48;100349.16;4891978;29;20050;-79
2022/11/16 03:46:26;;;;;;;53.92;31.92;;;;;;;11.31;86.00;100326.72;4889693;29;20286;-79
2022/11/16 03:49:00;;;;;;;52.65;30.33;;;;;;;10.89;85.79;100268.75;4893576;29;20559;-79
2022/11/16 03:51:27;;;;;;;52.83;29.73;;;;;;;11.04;86.24;100282.38;4891307;29;20431;-78
2022/11/16 03:53:56;;;;;;;59.78;32.42;;;;;;;11.33;86.05;100337.19;4892017;29;20911;-80
2022/11/16 03:56:34;;;;;;;52.33;31.73;;;;;;;11.28;86.19;100326.16;4896355;29;20211;-78
2022/11/16 03:59:01;;;;;;;49.22;29.65;;;;;;;11.11;85.56;100285.28;4895862;29;20162;-79
2022/11/16 04:01:27;;;;;;;52.53;29.92;;;;;;;11.24;85.69;100309.69;4896557;29;20055;-79
2022/11/16 04:03:54;;;;;;;50.67;29.33;;;;;;;11.26;86.02;100305.06;4895687;29;20074;-79
2022/11/16 04:26:09;;;;;;;51.50;29.52;;;;;;;11.31;86.54;100304.59;4897900;29;20548;-78
2022/11/16 04:28:36;;;;;;;52.08;29.10;;;;;;;11.17;85.92;100268.75;4900221;29;20131;-78
2022/11/16 04:39:22;;;;;;;46.00;27.48;;;;;;;11.26;86.08;100259.91;4903742;29;20580;-77
2022/11/16 04:47:29;;;;;;;49.80;29.83;;;;;;;10.94;85.30;100211.69;4902808;29;20300;-78
2022/11/16 04:49:56;;;;;;;46.53;27.20;;;;;;;11.32;85.45;100290.34;4897829;29;20136;-77
2022/11/16 04:52:23;;;;;;;45.03;27.00;;;;;;;11.27;86.15;100277.50;4899843;29;20539;-78
2022/11/16 04:54:52;;;;;;;47.30;27.35;;;;;;;11.11;85.98;100232.16;4902514;29;20410;-79
2022/11/16 04:57:19;;;;;;;43.58;25.95;;;;;;;11.48;85.53;100289.69;4897128;29;20578;-77
2022/11/16 04:59:46;;;;;;;50.53;27.90;;;;;;;11.44;85.11;100267.06;4900591;29;20439;-78
2022/11/16 05:02:14;;;;;;;47.47;28.33;;;;;;;11.63;85.05;100282.03;4897173;29;20171;-78
2022/11/16 05:04:44;;;;;;;47.72;28.85;;;;;;;11.40;84.57;100255.88;4914463;29;20114;-78
2022/11/16 05:07:16;;;;;;;45.90;26.17;;;;;;;11.63;84.72;100288.19;4897717;29;20131;-77
2022/11/16 05:09:45;;;;;;;50.47;26.85;;;;;;;11.27;84.37;100236.81;4914706;29;20831;-77
2022/11/16 05:12:14;;;;;;;46.60;28.15;;;;;;;11.00;84.81;100201.31;4898842;29;20051;-79
2022/11/16 05:14:45;;;;;;;44.40;27.17;;;;;;;11.55;84.85;100285.44;4917383;29;20056;-78
2022/11/16 05:17:13;;;;;;;50.70;28.25;;;;;;;11.52;84.83;100249.34;4900854;29;20062;-78
2022/11/16 05:22:25;;;;;;;49.00;26.92;;;;;;;11.51;84.23;100257.50;4878080;29;20052;-77
2022/11/16 05:24:52;;;;;;;48.63;27.48;;;;;;;11.32;84.23;100253.97;4901276;29;20937;-78
2022/11/16 05:27:21;;;;;;;45.85;25.73;;;;;;;11.48;84.04;100255.13;4917607;29;20504;-78
2022/11/16 05:29:48;;;;;;;53.72;29.70;;;;;;;11.51;84.83;100253.00;4920885;28;20047;-76
2022/11/16 05:32:18;;;;;;;48.08;28.02;;;;;;;11.57;84.82;100259.53;4916731;29;20055;-78
2022/11/16 05:34:45;;;;;;;49.53;28.80;;;;;;;11.59;84.72;100259.41;4917562;29;20861;-77
2022/11/16 05:37:19;;;;;;;54.42;31.08;;;;;;;11.51;84.03;100257.50;4919274;28;20081;-74
2022/11/16 05:39:47;;;;;;;52.50;28.80;;;;;;;11.54;84.26;100257.19;4915784;29;20165;-77
2022/11/16 05:42:16;;;;;;;53.15;32.08;;;;;;;11.37;84.77;100256.19;4900336;29;20067;-78
2022/11/16 05:44:43;;;;;;;47.45;28.63;;;;;;;11.25;84.59;100247.59;4894042;29;20544;-77
2022/11/16 05:47:10;;;;;;;58.10;31.15;;;;;;;11.42;84.90;100274.34;4893813;29;20581;-77
2022/11/16 05:49:36;;;;;;;52.65;30.08;;;;;;;11.40;84.24;100260.38;4881549;29;20250;-78
2022/11/16 05:52:03;;;;;;;43.67;26.17;;;;;;;11.32;85.34;100248.66;4893629;29;20048;-78
2022/11/16 05:54:30;;;;;;;58.75;31.75;;;;;;;11.46;84.85;100238.50;4905093;29;20055;-78
2022/11/16 05:56:59;;;;;;;54.67;30.67;;;;;;;11.27;84.28;100207.59;4893089;29;20079;-76
2022/11/16 05:59:28;;;;;;;53.15;29.55;;;;;;;11.50;84.24;100258.47;4891903;29;20804;-77
2022/11/16 06:01:54;;;;;;;50.42;28.23;;;;;;;11.19;83.65;100200.38;4896852;29;20051;-78
2022/11/16 06:04:21;;;;;;;53.80;30.73;;;;;;;11.43;84.01;100252.94;4898954;29;20514;-78
2022/11/16 06:06:50;;;;;;;54.65;31.83;;;;;;;11.36;84.44;100227.09;4885968;29;20217;-78
2022/11/16 06:09:20;;;;;;;45.67;25.92;;;;;;;11.31;84.87;100217.78;4864154;29;20429;-78
2022/11/16 06:11:47;;;;;;;57.83;31.30;;;;;;;11.41;84.67;100254.91;4873472;29;20457;-77
2022/11/16 06:14:14;;;;;;;62.25;32.78;;;;;;;11.49;84.99;100270.09;4880441;29;20060;-78
2022/11/16 06:16:41;;;;;;;60.55;31.55;;;;;;;11.44;84.39;100277.69;4873992;29;20119;-78
2022/11/16 06:19:07;;;;;;;58.92;32.45;;;;;;;10.86;84.67;100192.03;4884639;29;20553;-78
2022/11/16 06:21:36;;;;;;;63.42;33.40;;;;;;;11.19;85.64;100253.50;4876210;29;20602;-78
2022/11/16 06:24:08;;;;;;;63.67;33.80;;;;;;;11.32;85.86;100264.59;4863459;29;20807;-78
2022/11/16 06:26:35;;;;;;;;;;;;;;;11.34;86.39;100281.25;4902832;28;20090;-77
2022/11/16 06:29:03;;;;;;;70.00;34.50;;;;;;;10.99;86.41;100225.38;4836514;29;20009;-78
2022/11/16 06:31:32;;;;;;;65.95;33.55;;;;;;;11.42;85.61;100277.00;4884473;29;20052;-77
2022/11/16 06:33:59;;;;;;;65.55;32.30;;;;;;;11.39;85.88;100274.66;4892093;29;20288;-78
2022/11/16 06:36:26;;;;;;;63.08;33.38;;;;;;;11.44;86.29;100269.72;4895961;29;20047;-78
2022/11/16 06:38:52;;;;;;;72.03;35.03;;;;;;;10.78;85.92;100165.38;4881355;29;20062;-77
2022/11/16 06:41:20;;;;;;;58.60;30.30;;;;;;;11.41;85.31;100254.91;4884291;29;20617;-78
2022/11/16 06:43:47;;;;;;;59.83;31.58;;;;;;;11.27;86.14;100221.69;4877299;29;20068;-78
2022/11/16 06:46:13;;;;;;;58.25;31.42;;;;;;;11.32;86.06;100210.63;4882397;29;20452;-77
2022/11/16 06:48:49;;;;;;;54.58;31.27;;;;;;;11.18;85.85;100190.72;4887623;29;20657;-77
2022/11/16 06:51:19;;;;;;;57.17;31.73;;;;;;;11.32;85.61;100222.09;4880019;29;20199;-77
2022/11/16 06:53:52;;;;;;;54.72;29.58;;;;;;;11.32;85.75;100232.72;4830331;29;20168;-72
2022/11/16 06:56:22;;;;;;;55.70;31.25;;;;;;;11.47;86.04;100243.66;4864638;29;20059;-76
2022/11/16 06:58:49;;;;;;;58.60;31.65;;;;;;;11.46;86.14;100231.38;4893729;29;20054;-77
2022/11/16 07:01:19;;;;;;;55.90;32.22;;;;;;;11.69;84.50;100250.34;4886642;29;20563;-78
2022/11/16 07:03:46;;;;;;;47.97;28.08;;;;;;;11.22;84.50;100168.19;4860124;29;20067;-77
2022/11/16 07:06:26;;;;;;;55.08;30.02;;;;;;;11.69;83.93;100242.38;4876005;29;20353;-79
2022/11/16 07:08:53;;;;;;;51.97;30.02;;;;;;;11.61;83.46;100252.94;4911896;29;20571;-77
2022/11/16 07:11:20;;;;;;;53.88;30.45;;;;;;;11.29;84.38;100198.47;4894729;29;20874;-80
2022/11/16 07:13:48;;;;;;;52.55;31.40;;;;;;;11.50;84.86;100255.81;4891768;29;20059;-81
2022/11/16 07:16:14;;;;;;;61.08;33.20;;;;;;;11.36;85.19;100243.03;4891369;29;20369;-81
2022/11/16 07:18:41;;;;;;;70.80;35.10;;;;;;;11.38;85.44;100249.03;4890309;29;20059;-81
2022/11/16 07:21:14;;;;;;;62.88;33.33;;;;;;;11.25;85.71;100242.25;4888633;29;20052;-81
2022/11/16 07:23:42;;;;;;;71.32;36.17;;;;;;;11.14;86.16;100231.88;4888796;29;20051;-81
2022/11/16 07:26:10;;;;;;;62.15;33.78;;;;;;;11.32;86.28;100261.94;4893586;29;20138;-81
2022/11/16 07:28:39;;;;;;;60.38;32.35;;;;;;;11.28;86.07;100239.31;4891979;29;20047;-78
2022/11/16 07:31:14;;;;;;;63.90;32.08;;;;;;;11.15;86.64;100241.50;4878570;29;20542;-80
2022/11/16 07:33:44;;;;;;;64.20;34.83;;;;;;;11.26;86.25;100243.97;4871704;29;20660;-80
2022/11/16 07:36:13;;;;;;;68.85;33.85;;;;;;;11.18;86.30;100229.75;4876501;29;20354;-80
2022/11/16 07:38:43;;;;;;;72.20;36.63;;;;;;;11.03;87.47;100210.81;4877611;29;20052;-78
2022/11/16 07:41:15;;;;;;;74.95;36.97;;;;;;;11.15;87.35;100236.19;4878743;29;20060;-82
2022/11/16 07:43:42;;;;;;;63.08;35.55;;;;;;;11.17;87.90;100234.22;4876393;29;20650;-79
2022/11/16 07:46:22;;;;;;;61.47;33.17;;;;;;;11.17;87.14;100234.22;4875904;29;20059;-79
2022/11/16 07:49:14;;;;;;;60.60;32.53;;;;;;;11.13;86.45;100233.66;4885451;29;20048;-79
2022/11/16 07:51:42;;;;;;;65.38;33.22;;;;;;;11.28;87.29;100257.06;4909343;29;20059;-80
2022/11/16 07:54:15;;;;;;;66.07;32.90;;;;;;;11.23;86.04;100235.44;4895072;29;20048;-79
2022/11/16 07:56:42;;;;;;;66.53;36.75;;;;;;;10.89;85.94;100162.50;4898305;28;20052;-81
2022/11/16 07:59:16;;;;;;;70.25;36.40;;;;;;;11.43;85.97;100254.75;4893451;29;20773;-80
2022/11/16 08:01:45;;;;;;;66.82;35.67;;;;;;;11.23;86.39;100216.84;4897308;29;20043;-81
2022/11/16 08:04:11;;;;;;;72.60;36.45;;;;;;;11.20;86.85;100220.63;4893317;29;20620;-82
2022/11/16 08:06:38;;;;;;;62.75;36.25;;;;;;;11.11;87.40;100200.25;4892630;29;20201;-81
2022/11/16 08:09:08;;;;;;;70.32;36.85;;;;;;;11.32;86.46;100224.75;4889484;29;20529;-80
2022/11/16 08:11:34;;;;;;;72.13;38.20;;;;;;;11.09;86.73;100176.53;4874101;29;20056;-80
2022/11/16 08:14:05;;;;;;;70.68;37.95;;;;;;;11.40;86.45;100216.00;4882288;29;20525;-80
2022/11/16 08:16:32;;;;;;;64.07;35.57;;;;;;;11.37;85.75;100208.34;4897647;29;20578;-80
2022/11/16 08:19:02;;;;;;;74.85;38.20;;;;;;;11.19;86.03;100205.69;4875886;29;20314;-80
2022/11/16 08:21:31;;;;;;;68.97;36.08;;;;;;;10.97;86.33;100155.63;4877812;29;20060;-81
2022/11/16 08:23:58;;;;;;;64.97;35.67;;;;;;;11.04;86.08;100156.69;4893752;29;20419;-80
2022/11/16 08:26:26;;;;;;;62.25;32.97;;;;;;;11.43;85.73;100201.59;4887616;29;20979;-80
2022/11/16 08:28:55;;;;;;;63.25;34.58;;;;;;;11.40;84.72;100178.78;4895184;29;20044;-80
2022/11/16 08:31:25;;;;;;;59.38;33.00;;;;;;;11.62;84.18;100212.06;4894503;29;20051;-81
2022/11/16 08:33:51;;;;;;;60.03;34.53;;;;;;;11.10;84.69;100148.97;4894815;29;20530;-81
2022/11/16 08:36:19;;;;;;;57.55;33.20;;;;;;;11.50;85.31;100205.31;4893687;29;20147;-82
2022/11/16 08:38:47;;;;;;;58.80;34.05;;;;;;;11.20;85.42;100148.06;4896528;29;20062;-80
2022/11/16 08:41:16;;;;;;;59.28;30.27;;;;;;;11.53;85.33;100191.72;4891137;29;20078;-80
2022/11/16 08:43:45;;;;;;;59.20;32.30;;;;;;;11.53;85.02;100178.44;4891658;29;20303;-82
2022/11/16 08:46:16;;;;;;;52.60;31.35;;;;;;;11.50;84.26;100176.88;4889789;29;20063;-81
2022/11/16 08:48:44;;;;;;;58.00;32.53;;;;;;;11.59;84.62;100207.06;4886215;29;20970;-80
2022/11/16 08:51:25;;;;;;;52.67;30.58;;;;;;;11.57;84.22;100198.38;4909179;29;20130;-80
2022/11/16 08:53:56;;;;;;;60.40;31.52;;;;;;;11.40;83.52;100178.78;4897508;29;20051;-80
2022/11/16 08:56:26;;;;;;;57.78;31.92;;;;;;;11.52;83.06;100168.78;4895722;29;20055;-80
2022/11/16 08:58:53;;;;;;;62.63;33.08;;;;;;;11.06;83.61;100101.59;4892400;29;20841;-80
2022/11/16 09:01:27;;;;;;;57.22;32.03;;;;;;;11.64;84.07;100210.09;4891353;29;20044;-80
2022/11/16 09:03:55;;;;;;;61.40;34.97;;;;;;;11.64;84.85;100199.44;4889096;29;20063;-82
2022/11/16 09:06:23;;;;;;;64.72;34.30;;;;;;;11.62;84.73;100201.41;4889962;29;20051;-81
2022/11/16 09:08:50;;;;;;;60.22;33.05;;;;;;;11.57;85.15;100203.72;4892095;29;20052;-80
2022/11/16 09:11:20;;;;;;;59.45;32.20;;;;;;;11.58;85.20;100200.09;4910135;29;20171;-81
2022/11/16 09:13:49;;;;;;;62.13;32.90;;;;;;;11.54;85.60;100194.22;4891602;29;20703;-82
2022/11/16 09:16:16;;;;;;;66.35;36.17;;;;;;;11.58;85.76;100202.75;4909664;29;20063;-82
2022/11/16 09:18:45;;;;;;;66.40;36.83;;;;;;;11.44;85.75;100180.19;4911381;29;20158;-81
2022/11/16 09:21:27;;;;;;;;;;;;;;;11.62;85.48;100204.09;4910284;29;20137;-80
2022/11/16 09:23:54;;;;;;;62.88;33.58;;;;;;;11.55;85.65;100190.59;4912132;28;20452;-81
2022/11/16 09:26:23;;;;;;;61.80;32.33;;;;;;;11.23;85.92;100132.63;4895750;29;20626;-80
2022/11/16 09:28:58;;;;;;;51.75;31.60;;;;;;;11.21;85.32;100139.91;4895407;29;20492;-80
2022/11/16 09:31:32;;;;;;;57.67;31.88;;;;;;;11.57;85.36;100184.28;4891651;29;20432;-81
2022/11/16 09:34:00;;;;;;;61.00;33.75;;;;;;;11.67;85.35;100183.19;4895135;29;20570;-82
2022/11/16 09:36:27;;;;;;;55.78;31.90;;;;;;;11.87;84.69;100206.97;4897366;29;20047;-82
2022/11/16 09:38:55;;;;;;;60.03;31.98;;;;;;;11.45;84.44;100143.78;4889960;29;20610;-79
2022/11/16 09:42:11;;;;;;;55.90;32.58;;;;;;;11.90;84.26;100225.31;4890137;29;20051;-83
2022/11/16 09:45:05;;;;;;;54.20;31.45;;;;;;;12.03;82.64;100230.22;4894426;29;20059;-82
2022/11/16 09:47:50;;;;;;;56.60;32.58;;;;;;;11.95;84.01;100233.66;4892303;29;20048;-82
2022/11/16 09:50:48;;;;;;;56.88;32.58;;;;;;;11.68;83.83;100179.56;4904990;29;20388;-81
2022/11/16 09:53:32;;;;;;;54.95;33.35;;;;;;;12.05;82.72;100215.78;4923688;28;20174;-80
2022/11/16 09:56:07;;;;;;;58.28;34.05;;;;;;;12.01;83.18;100219.72;4901493;29;20051;-82
2022/11/16 09:59:05;;;;;;;56.13;32.92;;;;;;;11.96;83.51;100201.56;4898369;29;20054;-83
2022/11/16 10:02:00;;;;;;;47.85;30.50;;;;;;;12.06;82.92;100212.09;4892453;29;20225;-82
2022/11/16 10:04:42;;;;;;;49.17;31.13;;;;;;;11.93;82.26;100188.56;4895273;29;20577;-82
2022/11/16 10:07:15;;;;;;;45.58;28.02;;;;;;;11.87;83.32;100183.03;4899166;29;20803;-83
2022/11/16 10:09:45;;;;;;;44.78;28.45;;;;;;;11.95;83.88;100207.06;4894267;29;20556;-82
2022/11/16 10:12:36;;;;;;;43.92;28.08;;;;;;;11.97;84.34;100205.06;4908559;29;20591;-80
2022/11/16 10:15:14;;;;;;;47.20;28.40;;;;;;;12.01;84.45;100184.31;4893254;29;20099;-81
2022/11/16 10:17:58;;;;;;;46.42;28.67;;;;;;;12.04;83.63;100179.53;4895166;29;20526;-81
2022/11/16 10:20:51;;;;;;;49.80;29.25;;;;;;;11.94;83.55;100157.47;4899402;29;20079;-82
2022/11/16 10:23:38;;;;;;;43.60;27.92;;;;;;;12.15;83.55;100181.06;4882194;29;20056;-81
2022/11/16 10:26:20;;;;;;;42.42;27.88;;;;;;;12.24;83.48;100171.31;4873299;29;20075;-79
2022/11/16 10:28:49;;;;;;;;;;;;;;;12.23;82.65;100161.66;4874622;29;20048;-80
2022/11/16 10:31:20;;;;;;;116.00;33.55;;;;;;;11.98;83.32;100098.50;4874237;29;20040;-78
2022/11/16 10:33:51;;;;;;;41.28;25.45;;;;;;;12.65;82.89;100151.06;4879803;29;20119;-78
2022/11/16 10:36:25;;;;;;;33.97;23.17;;;;;;;12.66;79.84;100125.25;4868731;29;20877;-77
2022/11/16 10:38:55;;;;;;;39.80;23.83;;;;;;;12.63;80.31;100117.59;4868576;29;20055;-79
2022/11/16 10:41:42;;;;;;;39.17;22.25;;;;;;;12.72;79.77;100114.78;4875238;29;20071;-77
2022/11/16 10:44:20;;;;;;;33.08;22.08;;;;;;;12.80;78.07;100108.66;4888306;29;20386;-78
2022/11/16 10:47:04;;;;;;;30.42;21.70;;;;;;;12.77;78.96;100112.47;4890358;29;20079;-78
2022/11/16 10:49:39;;;;;;;50.65;25.67;;;;;;;12.28;79.37;100026.28;4885282;29;20051;-78
2022/11/16 10:52:09;;;;;;;42.42;25.55;;;;;;;12.90;79.94;100117.31;4893117;29;20067;-80
2022/11/16 10:54:36;;;;;;;41.40;24.30;;;;;;;13.02;80.30;100109.84;4889628;29;20436;-78
2022/11/16 10:57:14;;;;;;;30.88;21.02;;;;;;;13.17;78.51;100118.88;4887978;29;20330;-78
2022/11/16 10:59:46;;;;;;;;;;;;;;;12.96;77.83;100103.38;4879223;29;20142;-77
2022/11/16 11:02:32;;;;;;;27.57;19.87;;;;;;;12.96;78.45;100097.19;4887398;29;20874;-79
2022/11/16 11:05:16;;;;;;;25.80;18.70;;;;;;;13.05;77.50;100105.00;4888758;29;20062;-78
2022/11/16 11:08:01;;;;;;;26.70;17.38;;;;;;;12.46;77.15;100028.84;4900428;28;20066;-77
2022/11/16 11:10:30;;;;;;;32.10;21.80;;;;;;;12.71;78.36;100077.66;4889044;29;20052;-78
2022/11/16 11:13:10;;;;;;;27.48;18.40;;;;;;;12.83;78.66;100093.16;4885231;29;20317;-78
2022/11/16 11:15:38;;;;;;;30.75;21.52;;;;;;;12.40;78.93;100031.16;4886415;29;20052;-77
2022/11/16 11:18:14;;;;;;;22.42;16.35;;;;;;;12.75;77.90;100063.03;4892738;28;20066;-77
2022/11/16 11:20:45;;;;;;;17.08;14.65;;;;;;;12.58;76.77;100036.34;4891216;29;20111;-77
2022/11/16 11:23:21;;;;;;;21.90;15.57;;;;;;;12.68;78.16;100076.16;4888558;29;20085;-77
2022/11/16 11:26:04;;;;;;;27.27;18.42;;;;;;;12.77;78.64;100085.00;4883193;29;20162;-79
2022/11/16 11:28:33;;;;;;;27.20;19.60;;;;;;;12.58;78.94;100043.53;4887628;29;20154;-79
2022/11/16 11:31:15;;;;;;;27.17;18.10;;;;;;;12.63;78.27;100027.06;4871293;29;20490;-77
2022/11/16 11:33:56;;;;;;;27.40;17.23;;;;;;;12.94;78.41;100080.56;4866654;29;20047;-78
2022/11/16 11:36:37;;;;;;;26.83;18.20;;;;;;;12.90;77.39;100061.38;4877814;29;20079;-78
2022/11/16 11:39:24;;;;;;;26.33;18.57;;;;;;;12.78;77.98;100049.38;4879016;29;20502;-78
2022/11/16 11:42:05;;;;;;;20.25;14.35;;;;;;;12.82;78.48;100056.88;4876759;29;20338;-80
2022/11/16 11:44:43;;;;;;;18.73;13.70;;;;;;;12.88;78.24;100052.72;4886927;29;20052;-80
2022/11/16 11:47:20;;;;;;;24.20;18.75;;;;;;;12.72;78.43;100020.72;4865595;29;20393;-79
2022/11/16 11:50:20;;;;;;;16.08;12.82;;;;;;;12.94;78.33;100024.59;4859464;29;20048;-78
2022/11/16 11:53:18;;;;;;;30.65;20.27;;;;;;;13.23;77.83;100048.91;4863472;29;20612;-77
2022/11/16 11:55:44;;;;;;;18.20;13.02;;;;;;;13.12;76.74;100029.75;4869244;29;20048;-79
2022/11/16 11:58:18;;;;;;;17.30;13.70;;;;;;;12.96;76.94;100010.13;4842590;29;20151;-74
2022/11/16 12:01:14;;;;;;;23.23;17.15;;;;;;;13.02;76.71;100022.75;4859655;29;20056;-77
2022/11/16 12:04:41;;;;;;;15.25;12.68;;;;;;;12.78;76.62;99990.78;4876457;29;20593;-77
2022/11/16 12:07:34;;;;;;;20.95;16.02;;;;;;;13.20;77.21;100037.72;4868503;29;20286;-77
2022/11/16 12:10:21;;;;;;;23.52;17.60;;;;;;;13.17;76.47;100017.59;4875390;29;20064;-79
2022/11/16 12:12:54;;;;;;;16.85;13.27;;;;;;;13.28;75.17;100045.78;4861705;29;20678;-78
2022/11/16 12:15:54;;;;;;;16.60;13.43;;;;;;;13.18;75.70;100039.72;4855992;29;20060;-80
2022/11/16 12:18:32;;;;;;;21.33;15.90;;;;;;;13.09;76.56;100035.44;4860524;29;20142;-79
2022/11/16 12:21:25;;;;;;;19.13;14.10;;;;;;;13.02;77.37;100020.09;4868452;29;20055;-78